Deep River, Iowa
Current Conditions -  °F | °C
As of 12:35 PM on Thursday 27 Nov 2014 (Local Time) from KGGI Reporting Station
Clear Clear  
Wind Chill: -5°   Ceiling: Unl
Heat Index:   Visibility: 10mi
Dew Point:   Wind: 8mph
Humidity: 72%   Direction: 300°WNW
Pressure: 30.49"   Gusts: NA
Location:  41.58°N, 92.37°W
Report Text: KGGI 271835Z AUTO 30007KT 10SM CLR M13/M18 A3049 RMK AO2 T11351176
Loading
Personal Weather Stations






























Interactive Weather Map New forecast layout! Learn more

10-Day Weather Forecast

Advertisements
Track Severe Weather on mobile